createdAt,value
2023-04-01T00:03:40.613Z,8.34
2023-04-01T00:08:48.375Z,8.34
2023-04-01T00:13:55.561Z,8.36
2023-04-01T00:19:02.750Z,8.33
2023-04-01T00:24:09.805Z,8.33
2023-04-01T00:29:16.716Z,8.33
2023-04-01T00:34:24.848Z,8.33
2023-04-01T00:39:35.252Z,8.31
2023-04-01T00:44:42.737Z,8.29
2023-04-01T00:49:53.554Z,8.27
2023-04-01T00:55:05.037Z,8.33
2023-04-01T01:00:14.648Z,8.41
2023-04-01T01:05:27.994Z,8.54
2023-04-01T01:10:39.433Z,8.60
2023-04-01T01:15:52.055Z,8.58
2023-04-01T01:21:18.847Z,8.55
2023-04-01T01:26:56.302Z,8.54
2023-04-01T01:32:13.639Z,8.53
2023-04-01T01:37:24.534Z,8.52
2023-04-01T01:42:33.580Z,8.52
2023-04-01T01:47:42.735Z,8.51
2023-04-01T01:52:50.428Z,8.52
2023-04-01T01:58:00.701Z,8.52
2023-04-01T02:03:08.895Z,8.51
2023-04-01T02:08:19.539Z,8.53
2023-04-01T02:13:36.753Z,8.54
2023-04-01T02:18:47.677Z,8.55
2023-04-01T02:23:57.970Z,8.56
2023-04-01T02:29:08.028Z,8.55
2023-04-01T02:34:15.815Z,8.53
2023-04-01T02:39:23.837Z,8.51
2023-04-01T02:44:30.874Z,8.50
2023-04-01T02:49:39.304Z,8.50
2023-04-01T02:54:48.332Z,8.53
2023-04-01T02:59:55.546Z,8.56
2023-04-01T03:05:02.373Z,8.58
2023-04-01T03:10:11.450Z,8.61
2023-04-01T03:15:18.634Z,8.67
2023-04-01T03:20:25.652Z,8.73
2023-04-01T03:25:32.925Z,8.76
2023-04-01T03:30:40.494Z,8.79
2023-04-01T03:35:47.977Z,8.79
2023-04-01T03:40:55.074Z,8.79
2023-04-01T03:46:02.085Z,8.78
2023-04-01T03:51:12.109Z,8.77
2023-04-01T03:56:19.186Z,8.74
2023-04-01T04:01:26.376Z,8.71
2023-04-01T04:06:36.408Z,8.69
2023-04-01T04:11:43.359Z,8.64
2023-04-01T04:16:50.394Z,8.56
2023-04-01T04:21:57.238Z,8.52
2023-04-01T04:27:04.760Z,8.46
2023-04-01T04:32:12.151Z,8.34
2023-04-01T04:37:21.711Z,8.25
2023-04-01T04:42:28.804Z,8.23
2023-04-01T04:47:40.852Z,8.24
2023-04-01T04:52:48.039Z,8.25
2023-04-01T04:57:54.977Z,8.27
2023-04-01T05:03:02.183Z,8.28
2023-04-01T05:08:10.006Z,8.29
2023-04-01T05:13:17.063Z,8.31
2023-04-01T05:18:26.086Z,8.33
2023-04-01T05:23:35.264Z,8.36
2023-04-01T05:28:42.941Z,8.38
2023-04-01T05:33:49.886Z,8.41
2023-04-01T05:38:59.604Z,8.45
2023-04-01T05:44:07.308Z,8.48
2023-04-01T05:49:20.067Z,8.52
2023-04-01T05:54:27.920Z,8.54
2023-04-01T05:59:35.975Z,8.51
2023-04-01T06:04:44.106Z,8.49
2023-04-01T06:09:51.020Z,8.49
2023-04-01T06:15:11.693Z,8.49
2023-04-01T06:20:27.972Z,8.49
2023-04-01T06:25:45.449Z,8.48
2023-04-01T06:30:59.144Z,8.51
2023-04-01T06:36:24.546Z,8.53
2023-04-01T06:42:17.490Z,8.55
2023-04-01T06:47:34.442Z,8.56
2023-04-01T06:53:22.047Z,8.61
2023-04-01T06:58:52.516Z,8.66
2023-04-01T07:04:03.118Z,8.69
2023-04-01T07:09:16.913Z,8.76
2023-04-01T07:14:44.107Z,8.82
2023-04-01T07:19:58.399Z,8.86
2023-04-01T07:25:13.873Z,8.89
2023-04-01T07:30:24.774Z,8.92
2023-04-01T07:35:34.658Z,8.97
2023-04-01T07:40:50.057Z,9.03
2023-04-01T07:46:05.560Z,9.06
2023-04-01T07:51:22.432Z,9.09
2023-04-01T07:56:36.600Z,9.17
2023-04-01T08:01:51.647Z,9.21
2023-04-01T08:07:08.578Z,9.27
2023-04-01T08:12:26.441Z,9.39
2023-04-01T08:17:54.773Z,9.48
2023-04-01T08:23:09.444Z,9.53
2023-04-01T08:28:23.788Z,9.62
2023-04-01T08:33:33.619Z,9.72
2023-04-01T08:38:53.231Z,9.84
2023-04-01T08:44:22.399Z,9.96
2023-04-01T08:49:54.621Z,10.05
2023-04-01T08:55:48.713Z,10.07
2023-04-01T09:01:12.720Z,10.10
2023-04-01T09:06:51.594Z,10.09
2023-04-01T09:12:48.088Z,10.12
2023-04-01T09:18:31.179Z,10.25
2023-04-01T09:23:56.170Z,10.26
2023-04-01T09:29:21.153Z,10.27
2023-04-01T09:34:42.399Z,10.17
2023-04-01T09:40:02.629Z,9.96
2023-04-01T09:45:21.435Z,9.50
2023-04-01T09:50:38.826Z,9.17
2023-04-01T09:56:17.266Z,8.97
2023-04-01T10:01:57.139Z,8.80
2023-04-01T10:07:42.519Z,8.73
2023-04-01T10:13:19.805Z,8.70
2023-04-01T10:18:55.396Z,8.75
2023-04-01T10:24:55.825Z,8.82
2023-04-01T10:30:45.162Z,8.93
2023-04-01T10:36:34.498Z,8.98
2023-04-01T10:42:14.887Z,8.92
2023-04-01T10:48:12.455Z,8.90
2023-04-01T10:53:46.495Z,8.96
2023-04-01T10:59:49.542Z,8.96
2023-04-01T11:05:49.562Z,9.10
2023-04-01T11:11:35.825Z,9.34
2023-04-01T11:17:34.423Z,9.59
2023-04-01T11:23:20.760Z,9.72
2023-04-01T11:29:02.579Z,9.67
2023-04-01T11:34:18.933Z,9.75
2023-04-01T11:39:36.001Z,9.83
2023-04-01T11:44:53.831Z,9.82
2023-04-01T11:50:23.661Z,9.74
2023-04-01T11:55:41.973Z,9.66
2023-04-01T12:01:01.736Z,9.71
2023-04-01T12:06:18.814Z,9.76
2023-04-01T12:11:34.883Z,9.83
2023-04-01T12:16:50.429Z,9.96
2023-04-01T12:22:09.985Z,10.01
2023-04-01T12:27:44.112Z,10.09
2023-04-01T12:32:59.470Z,10.20
2023-04-01T12:38:23.031Z,10.26
2023-04-01T12:44:03.011Z,10.40
2023-04-01T12:49:23.471Z,10.84
2023-04-01T12:54:52.692Z,11.32
2023-04-01T13:00:24.409Z,11.63
2023-04-01T13:06:10.384Z,11.60
2023-04-01T13:11:30.834Z,11.76
2023-04-01T13:16:44.286Z,11.67
2023-04-01T13:21:59.993Z,11.69
2023-04-01T13:27:11.895Z,11.69
2023-04-01T13:32:43.306Z,11.79
2023-04-01T13:38:03.904Z,11.70
2023-04-01T13:43:17.737Z,11.55
2023-04-01T13:49:00.820Z,11.40
2023-04-01T13:54:38.785Z,11.40
2023-04-01T14:00:00.501Z,11.43
2023-04-01T14:05:42.067Z,11.36
2023-04-01T14:11:01.876Z,11.28
2023-04-01T14:16:27.279Z,11.32
2023-04-01T14:21:39.594Z,11.47
2023-04-01T14:27:16.238Z,11.45
2023-04-01T14:32:34.000Z,11.29
2023-04-01T14:38:12.031Z,11.19
2023-04-01T14:43:30.044Z,11.15
2023-04-01T14:48:40.205Z,11.12
2023-04-01T14:53:55.371Z,11.08
2023-04-01T14:59:02.587Z,11.01
2023-04-01T15:04:24.547Z,10.64
2023-04-01T15:09:43.770Z,10.25
2023-04-01T15:15:14.029Z,10.03
2023-04-01T15:20:36.006Z,9.99
2023-04-01T15:25:54.589Z,9.86
2023-04-01T15:31:10.588Z,9.77
2023-04-01T15:36:29.836Z,9.73
2023-04-01T15:41:51.397Z,9.76
2023-04-01T15:46:57.854Z,9.80
2023-04-01T15:52:12.472Z,9.86
2023-04-01T15:57:31.468Z,9.90
2023-04-01T16:02:46.296Z,9.93
2023-04-01T16:08:03.398Z,9.93
2023-04-01T16:13:30.441Z,9.96
2023-04-01T16:18:52.594Z,9.96
2023-04-01T16:24:05.734Z,9.95
2023-04-01T16:29:22.369Z,9.96
2023-04-01T16:34:36.858Z,9.94
2023-04-01T16:39:51.716Z,9.88
2023-04-01T16:45:05.305Z,9.82
2023-04-01T16:50:21.628Z,9.78
2023-04-01T16:55:44.247Z,9.74
2023-04-01T17:00:57.922Z,9.69
2023-04-01T17:06:22.159Z,9.66
2023-04-01T17:11:35.528Z,9.62
2023-04-01T17:16:58.786Z,9.58
2023-04-01T17:22:18.699Z,9.55
2023-04-01T17:27:38.926Z,9.53
2023-04-01T17:32:58.033Z,9.48
2023-04-01T17:38:16.112Z,9.41
2023-04-01T17:43:31.262Z,9.36
2023-04-01T17:48:50.600Z,9.31
2023-04-01T17:54:09.102Z,9.26
2023-04-01T17:59:22.371Z,9.20
2023-04-01T18:04:45.080Z,9.16
2023-04-01T18:10:05.820Z,9.09
2023-04-01T18:15:41.240Z,9.02
2023-04-01T18:20:56.811Z,8.95
2023-04-01T18:26:12.061Z,8.88
2023-04-01T18:31:25.561Z,8.78
2023-04-01T18:36:46.766Z,8.71
2023-04-01T18:42:06.517Z,8.65
2023-04-01T18:47:27.852Z,8.61
2023-04-01T18:52:40.008Z,8.56
2023-04-01T18:57:51.895Z,8.53
2023-04-01T19:03:04.477Z,8.51
2023-04-01T19:08:29.510Z,8.47
2023-04-01T19:13:47.358Z,8.42
2023-04-01T19:19:11.805Z,8.40
2023-04-01T19:24:40.570Z,8.37
2023-04-01T19:30:04.618Z,8.33
2023-04-01T19:35:23.393Z,8.29
2023-04-01T19:40:50.599Z,8.29
2023-04-01T19:46:08.810Z,8.28
2023-04-01T19:51:25.308Z,8.27
2023-04-01T19:56:36.925Z,8.26
2023-04-01T20:01:46.548Z,8.25
2023-04-01T20:06:59.332Z,8.24
2023-04-01T20:12:17.948Z,8.23
2023-04-01T20:17:28.299Z,8.21
2023-04-01T20:22:56.269Z,8.19
2023-04-01T20:28:07.164Z,8.18
2023-04-01T20:33:35.629Z,8.16
2023-04-01T20:39:16.603Z,8.13
2023-04-01T20:44:30.854Z,8.11
2023-04-01T20:49:43.635Z,8.07
2023-04-01T20:55:05.597Z,8.06
2023-04-01T21:00:33.800Z,8.02
2023-04-01T21:06:05.724Z,7.96
2023-04-01T21:11:16.834Z,7.88
2023-04-01T21:16:32.626Z,7.83
2023-04-01T21:22:13.681Z,7.80
2023-04-01T21:27:31.258Z,7.76
2023-04-01T21:33:02.749Z,7.71
2023-04-01T21:38:26.112Z,7.63
2023-04-01T21:44:05.421Z,7.56
2023-04-01T21:49:30.939Z,7.50
2023-04-01T21:55:06.394Z,7.46
2023-04-01T22:00:19.611Z,7.41
2023-04-01T22:05:30.866Z,7.37
2023-04-01T22:10:46.935Z,7.34
2023-04-01T22:16:04.151Z,7.33
2023-04-01T22:21:24.285Z,7.29
2023-04-01T22:26:40.202Z,7.25
2023-04-01T22:31:54.522Z,7.23
2023-04-01T22:37:08.983Z,7.20
2023-04-01T22:42:32.293Z,7.17
2023-04-01T22:47:50.755Z,7.16
2023-04-01T22:53:04.885Z,7.14
2023-04-01T22:58:18.601Z,7.10
2023-04-01T23:03:30.043Z,7.07
2023-04-01T23:09:04.761Z,7.03
2023-04-01T23:14:47.554Z,6.98
2023-04-01T23:20:04.061Z,6.93
2023-04-01T23:25:27.087Z,6.84
2023-04-01T23:30:54.095Z,6.74
2023-04-01T23:36:07.100Z,6.62
2023-04-01T23:41:25.598Z,6.53
2023-04-01T23:46:34.521Z,6.45
2023-04-01T23:51:51.989Z,6.38
2023-04-01T23:57:00.113Z,6.30
